createdAt,value
2017-07-04T00:00:14.572Z,99.99
2017-07-04T00:00:42.714Z,99.99
2017-07-04T00:01:10.855Z,99.99
2017-07-04T00:01:38.961Z,99.99
2017-07-04T00:02:06.982Z,99.99
2017-07-04T00:02:35.021Z,99.99
2017-07-04T00:03:03.276Z,99.99
2017-07-04T00:03:31.393Z,99.99
2017-07-04T00:03:59.406Z,99.99
2017-07-04T00:04:27.640Z,99.99
2017-07-04T00:04:55.586Z,99.99
2017-07-04T00:05:23.726Z,99.99
2017-07-04T00:05:51.931Z,99.99
2017-07-04T00:06:20.053Z,99.99
2017-07-04T00:06:48.154Z,99.99
2017-07-04T00:07:16.277Z,99.99
2017-07-04T00:07:44.427Z,99.99
2017-07-04T00:08:12.587Z,99.99
2017-07-04T00:08:40.745Z,99.99
2017-07-04T00:09:08.857Z,99.99
2017-07-04T00:09:36.879Z,99.99
2017-07-04T00:10:05.101Z,99.99
2017-07-04T00:10:33.202Z,99.99
2017-07-04T00:11:01.339Z,99.99
2017-07-04T00:11:29.446Z,99.99
2017-07-04T00:11:57.573Z,99.99
2017-07-04T00:12:25.771Z,99.99
2017-07-04T00:12:54.102Z,99.99
2017-07-04T00:13:22.370Z,99.99
2017-07-04T00:13:50.433Z,99.99
2017-07-04T00:14:18.652Z,99.99
2017-07-04T00:14:46.804Z,99.99
2017-07-04T00:15:14.919Z,99.99
2017-07-04T00:15:43.055Z,99.99
2017-07-04T00:16:11.070Z,99.99
2017-07-04T00:16:39.216Z,99.99
2017-07-04T00:17:07.141Z,99.99
2017-07-04T00:17:35.321Z,99.99
2017-07-04T00:18:03.561Z,99.99
2017-07-04T00:18:31.800Z,99.99
2017-07-04T00:19:00.054Z,99.99
2017-07-04T00:19:28.032Z,99.99
2017-07-04T00:19:56.246Z,99.99
2017-07-04T00:20:24.342Z,99.99
2017-07-04T00:20:52.536Z,99.99
2017-07-04T00:21:20.754Z,99.99
2017-07-04T00:21:48.990Z,99.99
2017-07-04T00:22:17.123Z,99.99
2017-07-04T00:22:45.243Z,99.99
2017-07-04T00:23:13.517Z,99.99
2017-07-04T00:23:41.603Z,99.99
2017-07-04T00:24:09.641Z,99.99
2017-07-04T00:24:37.901Z,99.99
2017-07-04T00:25:05.996Z,99.99
2017-07-04T00:25:34.108Z,99.99
2017-07-04T00:26:02.091Z,99.99
2017-07-04T00:26:30.233Z,99.99
2017-07-04T00:26:58.136Z,99.99
2017-07-04T00:27:26.402Z,99.99
2017-07-04T00:27:54.550Z,99.99
2017-07-04T00:28:22.874Z,99.99
2017-07-04T00:28:51.016Z,99.99
2017-07-04T00:29:19.178Z,99.99
2017-07-04T00:29:47.211Z,99.99
2017-07-04T00:30:15.327Z,99.99
2017-07-04T00:30:43.571Z,99.99
2017-07-04T00:31:11.837Z,99.99
2017-07-04T00:31:39.972Z,99.99
2017-07-04T00:32:08.191Z,99.99
2017-07-04T00:32:36.433Z,99.99
2017-07-04T00:33:04.577Z,99.99
2017-07-04T00:33:32.823Z,99.99
2017-07-04T00:34:01.079Z,99.99
2017-07-04T00:34:29.275Z,99.99
2017-07-04T00:34:57.514Z,99.99
2017-07-04T00:35:25.616Z,99.99
2017-07-04T00:35:53.863Z,99.99
2017-07-04T00:36:22.110Z,99.99
2017-07-04T00:36:50.320Z,99.99
2017-07-04T00:37:18.443Z,99.99
2017-07-04T00:37:46.403Z,99.99
2017-07-04T00:38:14.627Z,99.99
2017-07-04T00:38:42.730Z,99.99
2017-07-04T00:39:10.754Z,99.99
2017-07-04T00:39:38.818Z,99.99
2017-07-04T00:40:07.010Z,99.99
2017-07-04T00:40:34.994Z,99.99
2017-07-04T00:41:03.126Z,99.99
2017-07-04T00:41:31.348Z,99.99
2017-07-04T00:41:59.566Z,99.99
2017-07-04T00:42:27.717Z,99.99
2017-07-04T00:42:55.719Z,99.99
2017-07-04T00:43:24.049Z,99.99
2017-07-04T00:43:52.078Z,99.99
2017-07-04T00:44:20.313Z,99.99
2017-07-04T00:44:48.560Z,99.99
2017-07-04T00:45:16.602Z,99.99
2017-07-04T00:45:44.790Z,99.99
2017-07-04T00:46:12.768Z,99.99
2017-07-04T00:46:41.033Z,99.99
2017-07-04T00:47:09.236Z,99.99
2017-07-04T00:47:37.398Z,99.99
2017-07-04T00:48:05.502Z,99.99
2017-07-04T00:48:33.736Z,99.99
2017-07-04T00:49:01.822Z,99.99
2017-07-04T00:49:29.833Z,99.99
2017-07-04T00:49:57.878Z,99.99
2017-07-04T00:50:26.084Z,99.99
2017-07-04T00:50:54.239Z,99.99
2017-07-04T00:51:22.442Z,99.99
2017-07-04T00:51:50.484Z,99.99
2017-07-04T00:52:18.697Z,99.99
2017-07-04T00:52:46.784Z,99.99
2017-07-04T00:53:14.918Z,99.99
2017-07-04T00:53:43.227Z,99.99
2017-07-04T00:54:11.363Z,99.99
2017-07-04T00:54:39.560Z,99.99
2017-07-04T00:55:07.690Z,99.99
2017-07-04T00:55:35.908Z,99.99
2017-07-04T00:56:04.010Z,99.99
2017-07-04T00:56:32.020Z,99.99
2017-07-04T00:57:00.055Z,99.99
2017-07-04T00:57:28.299Z,99.99
2017-07-04T00:57:56.444Z,99.99
2017-07-04T00:58:24.572Z,99.99
2017-07-04T00:58:52.781Z,99.99
2017-07-04T00:59:20.777Z,99.99
2017-07-04T00:59:48.891Z,99.99
2017-07-04T01:00:17.032Z,99.99
2017-07-04T01:00:45.169Z,99.99
2017-07-04T01:01:13.400Z,99.99
2017-07-04T01:01:41.358Z,99.99
2017-07-04T01:02:09.595Z,99.99
2017-07-04T01:02:37.679Z,99.99
2017-07-04T01:03:05.813Z,99.99
2017-07-04T01:03:34.155Z,99.99
2017-07-04T01:04:02.217Z,99.99
2017-07-04T01:04:30.307Z,99.99
2017-07-04T01:04:58.515Z,99.99
2017-07-04T01:05:26.781Z,99.99
2017-07-04T01:05:55.023Z,99.99
2017-07-04T01:06:23.076Z,99.99
2017-07-04T01:06:51.195Z,99.99
2017-07-04T01:07:19.198Z,99.99
2017-07-04T01:07:47.336Z,99.99
2017-07-04T01:08:15.370Z,99.99
2017-07-04T01:08:43.465Z,99.99
2017-07-04T01:09:11.493Z,99.99
2017-07-04T01:09:39.767Z,99.99
2017-07-04T01:10:08.003Z,99.99
2017-07-04T01:10:35.958Z,99.99
2017-07-04T01:11:04.078Z,99.99
2017-07-04T01:11:32.173Z,99.99
2017-07-04T01:12:00.445Z,99.99
2017-07-04T01:12:28.681Z,99.99
2017-07-04T01:12:56.643Z,99.99
2017-07-04T01:13:24.909Z,99.99
2017-07-04T01:13:53.259Z,99.99
2017-07-04T01:14:21.383Z,99.99
2017-07-04T01:14:49.505Z,99.99
2017-07-04T01:15:17.643Z,99.99
2017-07-04T01:15:45.802Z,99.99
2017-07-04T01:16:14.106Z,99.99
2017-07-04T01:16:42.308Z,99.99
2017-07-04T01:17:10.311Z,99.99
2017-07-04T01:17:38.380Z,99.99
2017-07-04T01:18:06.607Z,99.99
2017-07-04T01:18:34.712Z,99.99
2017-07-04T01:19:03.056Z,99.99
2017-07-04T01:19:31.192Z,99.99
2017-07-04T01:19:59.346Z,99.99
2017-07-04T01:20:27.416Z,99.99
2017-07-04T01:20:55.557Z,99.99
2017-07-04T01:21:23.536Z,99.99
2017-07-04T01:21:51.654Z,99.99
2017-07-04T01:22:19.760Z,99.99
2017-07-04T01:22:47.909Z,99.99
2017-07-04T01:23:16.134Z,99.99
2017-07-04T01:23:44.298Z,99.99
2017-07-04T01:24:12.613Z,99.99
2017-07-04T01:24:40.718Z,99.99
2017-07-04T01:25:08.831Z,99.99
2017-07-04T01:25:37.071Z,99.99
2017-07-04T01:26:05.277Z,99.99
2017-07-04T01:26:33.383Z,99.99
2017-07-04T01:27:01.633Z,99.99
2017-07-04T01:27:29.821Z,99.99
2017-07-04T01:27:58.080Z,99.99
2017-07-04T01:28:26.226Z,99.99
2017-07-04T01:28:54.427Z,99.99
2017-07-04T01:29:22.646Z,99.99
2017-07-04T01:29:50.660Z,99.99
2017-07-04T01:30:18.790Z,99.99
2017-07-04T01:30:46.923Z,99.99
2017-07-04T01:31:15.123Z,99.99
2017-07-04T01:31:43.265Z,99.99
2017-07-04T01:32:11.383Z,99.99
2017-07-04T01:32:39.398Z,99.99
2017-07-04T01:33:07.626Z,99.99
2017-07-04T01:33:35.661Z,99.99
2017-07-04T01:34:04.001Z,99.99
2017-07-04T01:34:32.259Z,99.99
2017-07-04T01:35:00.467Z,99.99
2017-07-04T01:35:28.511Z,99.99
2017-07-04T01:35:56.688Z,99.99
2017-07-04T01:36:24.898Z,99.99
2017-07-04T01:36:53.027Z,99.99
2017-07-04T01:37:21.229Z,99.99
2017-07-04T01:37:49.451Z,99.99
2017-07-04T01:38:17.653Z,99.99
2017-07-04T01:38:45.796Z,99.99
2017-07-04T01:39:14.104Z,99.99
2017-07-04T01:39:42.367Z,99.99
2017-07-04T01:40:10.477Z,99.99
2017-07-04T01:40:38.672Z,99.99
2017-07-04T01:41:06.711Z,99.99
2017-07-04T01:41:34.830Z,99.99
2017-07-04T01:42:02.988Z,99.99
2017-07-04T01:42:30.921Z,99.99
2017-07-04T01:42:58.898Z,99.99
2017-07-04T01:43:27.042Z,99.99
2017-07-04T01:43:55.269Z,99.99
2017-07-04T01:44:23.653Z,99.99
2017-07-04T01:44:51.890Z,99.99
2017-07-04T01:45:20.021Z,99.99
2017-07-04T01:45:48.152Z,99.99
2017-07-04T01:46:16.253Z,99.99
2017-07-04T01:46:44.499Z,99.99
2017-07-04T01:47:12.548Z,99.99
2017-07-04T01:47:40.389Z,99.99
2017-07-04T01:48:08.568Z,99.99
2017-07-04T01:48:36.679Z,99.99
2017-07-04T01:49:04.886Z,99.99
2017-07-04T01:49:33.161Z,99.99
2017-07-04T01:50:01.262Z,99.99
2017-07-04T01:50:29.399Z,99.99
2017-07-04T01:50:57.640Z,99.99
2017-07-04T01:51:25.508Z,99.99
2017-07-04T01:51:53.764Z,99.99
2017-07-04T01:52:21.936Z,99.99
2017-07-04T01:52:50.087Z,99.99
2017-07-04T01:53:18.307Z,99.99
2017-07-04T01:53:46.419Z,99.99
2017-07-04T01:54:14.523Z,99.99
2017-07-04T01:54:42.552Z,99.99
2017-07-04T01:55:10.674Z,99.99
2017-07-04T01:55:38.812Z,99.99
2017-07-04T01:56:07.052Z,99.99
2017-07-04T01:56:35.335Z,99.99
2017-07-04T01:57:03.500Z,99.99
2017-07-04T01:57:31.740Z,99.99
2017-07-04T01:57:59.967Z,99.99
2017-07-04T01:58:27.997Z,99.99
2017-07-04T01:58:56.206Z,99.99
2017-07-04T01:59:24.533Z,99.99
2017-07-04T01:59:52.670Z,99.99
2017-07-04T02:00:20.801Z,99.99
2017-07-04T02:00:48.948Z,99.99
2017-07-04T02:01:17.183Z,99.99
2017-07-04T02:01:45.387Z,99.99
2017-07-04T02:02:13.604Z,99.99
2017-07-04T02:02:41.870Z,99.99
2017-07-04T02:03:10.116Z,99.99
2017-07-04T02:03:38.341Z,99.99
2017-07-04T02:04:06.593Z,99.99
2017-07-04T02:04:34.821Z,99.99
2017-07-04T02:05:02.839Z,99.99
2017-07-04T02:05:31.067Z,99.99
2017-07-04T02:05:59.280Z,99.99
2017-07-04T02:06:27.377Z,99.99
2017-07-04T02:06:55.483Z,99.99
2017-07-04T02:07:23.699Z,99.99
2017-07-04T02:07:51.834Z,99.99
2017-07-04T02:08:20.037Z,99.99
2017-07-04T02:08:48.310Z,99.99
2017-07-04T02:09:16.295Z,99.99
2017-07-04T02:09:44.417Z,99.99
2017-07-04T02:10:12.721Z,99.99
2017-07-04T02:10:40.903Z,99.99
2017-07-04T02:11:08.997Z,99.99
2017-07-04T02:11:37.222Z,99.99
2017-07-04T02:12:05.338Z,99.99
2017-07-04T02:12:33.591Z,99.99
2017-07-04T02:13:01.844Z,99.99
2017-07-04T02:13:29.957Z,99.99
2017-07-04T02:13:58.220Z,99.99
2017-07-04T02:14:26.451Z,99.99
2017-07-04T02:14:54.743Z,99.99
2017-07-04T02:15:22.775Z,99.99
2017-07-04T02:15:50.903Z,99.99
2017-07-04T02:16:19.170Z,99.99
2017-07-04T02:16:47.258Z,99.99
2017-07-04T02:17:15.496Z,99.99
2017-07-04T02:17:43.737Z,99.99
2017-07-04T02:18:12.027Z,99.99
2017-07-04T02:18:40.159Z,99.99
2017-07-04T02:19:08.384Z,99.99
2017-07-04T02:19:36.697Z,99.99
2017-07-04T02:20:04.803Z,99.99
2017-07-04T02:20:33.020Z,99.99
2017-07-04T02:21:01.255Z,99.99
2017-07-04T02:21:29.524Z,99.99
2017-07-04T02:21:57.667Z,99.99
2017-07-04T02:22:25.860Z,99.99
2017-07-04T02:22:53.923Z,99.99
2017-07-04T02:23:22.180Z,99.99
2017-07-04T02:23:50.241Z,99.99
2017-07-04T02:24:18.401Z,99.99
2017-07-04T02:24:46.741Z,99.99
2017-07-04T02:25:14.971Z,99.99
2017-07-04T02:25:43.094Z,99.99
2017-07-04T02:26:11.229Z,99.99
2017-07-04T02:26:39.156Z,99.99
2017-07-04T02:27:07.285Z,99.99
2017-07-04T02:27:35.499Z,99.99
2017-07-04T02:28:03.511Z,99.99
2017-07-04T02:28:31.693Z,99.99
2017-07-04T02:28:59.708Z,99.99
2017-07-04T02:29:27.967Z,99.99
2017-07-04T02:29:56.265Z,99.99
2017-07-04T02:30:24.490Z,99.99
2017-07-04T02:30:52.659Z,99.99
2017-07-04T02:31:20.906Z,99.99
2017-07-04T02:31:49.029Z,99.99
2017-07-04T02:32:17.150Z,99.99
2017-07-04T02:32:45.357Z,99.99
2017-07-04T02:33:13.276Z,99.99
2017-07-04T02:33:41.494Z,99.99
2017-07-04T02:34:09.461Z,99.99
2017-07-04T02:34:37.592Z,99.99
2017-07-04T02:35:05.760Z,99.99
2017-07-04T02:35:33.893Z,99.99
2017-07-04T02:36:02.066Z,99.99
2017-07-04T02:36:30.247Z,99.99
2017-07-04T02:36:58.513Z,99.99
2017-07-04T02:37:26.414Z,99.99
2017-07-04T02:37:54.613Z,99.99
2017-07-04T02:38:22.790Z,99.99
2017-07-04T02:38:50.815Z,99.99
2017-07-04T02:39:19.044Z,99.99
2017-07-04T02:39:47.312Z,99.99
2017-07-04T02:40:15.555Z,99.99
2017-07-04T02:40:43.707Z,99.99
2017-07-04T02:41:12.013Z,99.99
2017-07-04T02:41:40.303Z,99.99
2017-07-04T02:42:08.489Z,99.99
2017-07-04T02:42:36.705Z,99.99
2017-07-04T02:43:04.939Z,99.99
2017-07-04T02:43:33.047Z,99.99
2017-07-04T02:44:00.945Z,99.99
2017-07-04T02:44:28.934Z,99.99
2017-07-04T02:44:57.241Z,99.99
2017-07-04T02:45:25.488Z,99.99
2017-07-04T02:45:53.615Z,99.99
2017-07-04T02:46:21.810Z,99.99
2017-07-04T02:46:50.051Z,99.99
2017-07-04T02:47:18.277Z,99.99
2017-07-04T02:47:46.506Z,99.99
2017-07-04T02:48:14.727Z,99.99
2017-07-04T02:48:42.881Z,99.99
2017-07-04T02:49:10.984Z,99.99
2017-07-04T02:49:39.106Z,99.8
2017-07-04T02:50:07.265Z,99.89
2017-07-04T02:50:35.486Z,99.75
2017-07-04T02:51:03.756Z,99.89
2017-07-04T02:51:32.056Z,99.99
2017-07-04T02:52:00.115Z,99.99
2017-07-04T02:52:28.159Z,99.7
2017-07-04T02:52:56.348Z,99.99
2017-07-04T02:53:24.452Z,99.89
2017-07-04T02:53:52.520Z,99.99
2017-07-04T02:54:20.630Z,99.89
2017-07-04T02:54:48.750Z,99.6
2017-07-04T02:55:16.954Z,99.89
2017-07-04T02:55:45.035Z,99.89
2017-07-04T02:56:13.202Z,99.99
2017-07-04T02:56:41.451Z,99.8
2017-07-04T02:57:09.625Z,99.7
2017-07-04T02:57:37.681Z,99.37
2017-07-04T02:58:05.705Z,99.6
2017-07-04T02:58:33.826Z,99.37
2017-07-04T02:59:02.079Z,99.41
2017-07-04T02:59:30.338Z,99.32
2017-07-04T02:59:58.651Z,99.32
2017-07-04T03:00:27.008Z,99.51
2017-07-04T03:00:55.243Z,99.18
2017-07-04T03:01:23.457Z,99.41
2017-07-04T03:01:51.578Z,99.27
2017-07-04T03:02:19.806Z,99.56
2017-07-04T03:02:47.937Z,99.66
2017-07-04T03:03:15.948Z,98.65
2017-07-04T03:03:44.188Z,99.46
2017-07-04T03:04:12.232Z,98.85
2017-07-04T03:04:40.245Z,98.9
2017-07-04T03:05:08.354Z,98.85
2017-07-04T03:05:36.690Z,98.85
2017-07-04T03:06:04.778Z,98.99
2017-07-04T03:06:32.982Z,98.8
2017-07-04T03:07:00.994Z,98.9
2017-07-04T03:07:29.236Z,98.94
2017-07-04T03:07:57.472Z,98.99
2017-07-04T03:08:25.709Z,98.85
2017-07-04T03:08:53.910Z,98.7
2017-07-04T03:09:22.047Z,99.13
2017-07-04T03:09:50.271Z,99.37
2017-07-04T03:10:18.414Z,98.99
2017-07-04T03:10:46.513Z,98.9
2017-07-04T03:11:14.518Z,98.22
2017-07-04T03:11:42.474Z,98.8
2017-07-04T03:12:10.531Z,98.22
2017-07-04T03:12:38.784Z,98.75
2017-07-04T03:13:07.023Z,98.51
2017-07-04T03:13:35.134Z,98.03
2017-07-04T03:14:03.240Z,98.22
2017-07-04T03:14:31.482Z,98.22
2017-07-04T03:14:59.500Z,98.22
2017-07-04T03:15:27.589Z,98.13
2017-07-04T03:15:55.708Z,98.13
2017-07-04T03:16:23.949Z,97.94
2017-07-04T03:16:52.163Z,98.08
2017-07-04T03:17:20.279Z,98.51
2017-07-04T03:17:48.460Z,98.46
2017-07-04T03:18:16.597Z,98.8
2017-07-04T03:18:44.698Z,98.75
2017-07-04T03:19:12.707Z,98.61
2017-07-04T03:19:40.829Z,98.85
2017-07-04T03:20:08.944Z,98.94
2017-07-04T03:20:37.115Z,98.85
2017-07-04T03:21:05.152Z,98.46
2017-07-04T03:21:33.252Z,98.32
2017-07-04T03:22:01.359Z,98.46
2017-07-04T03:22:29.476Z,97.99
2017-07-04T03:22:57.403Z,97.7
2017-07-04T03:23:25.496Z,98.22
2017-07-04T03:23:53.602Z,98.27
2017-07-04T03:24:21.646Z,97.99
2017-07-04T03:24:49.634Z,97.85
2017-07-04T03:25:17.780Z,97.46
2017-07-04T03:25:46.113Z,98.03
2017-07-04T03:26:14.173Z,97.8
2017-07-04T03:26:42.163Z,98.51
2017-07-04T03:27:10.226Z,98.27
2017-07-04T03:27:38.427Z,98.18
2017-07-04T03:28:06.555Z,98.36
2017-07-04T03:28:34.828Z,98.18
2017-07-04T03:29:02.997Z,98.08
2017-07-04T03:29:31.038Z,97.99
2017-07-04T03:29:59.017Z,98.46
2017-07-04T03:30:27.265Z,98.27
2017-07-04T03:30:55.571Z,98.36
2017-07-04T03:31:23.774Z,98.36
2017-07-04T03:31:51.933Z,98.46
2017-07-04T03:32:20.180Z,98.46
2017-07-04T03:32:48.417Z,98.46
2017-07-04T03:33:16.449Z,98.36
2017-07-04T03:33:44.500Z,98.27
2017-07-04T03:34:12.646Z,98.46
2017-07-04T03:34:40.774Z,98.75
2017-07-04T03:35:08.979Z,98.65
2017-07-04T03:35:37.316Z,98.75
2017-07-04T03:36:05.413Z,99.04
2017-07-04T03:36:33.617Z,98.94
2017-07-04T03:37:01.750Z,98.94
2017-07-04T03:37:29.915Z,98.75
2017-07-04T03:37:58.046Z,98.94
2017-07-04T03:38:26.057Z,99.13
2017-07-04T03:38:54.259Z,98.85
2017-07-04T03:39:22.463Z,98.94
2017-07-04T03:39:50.591Z,98.75
2017-07-04T03:40:18.822Z,98.85
2017-07-04T03:40:47.061Z,98.94
2017-07-04T03:41:15.208Z,98.85
2017-07-04T03:41:43.437Z,98.75
2017-07-04T03:42:11.699Z,98.65
2017-07-04T03:42:39.846Z,98.75
2017-07-04T03:43:08.042Z,98.56
2017-07-04T03:43:36.182Z,99.22
2017-07-04T03:44:04.179Z,98.65
2017-07-04T03:44:32.373Z,98.56
2017-07-04T03:45:00.394Z,99.41
2017-07-04T03:45:28.303Z,99.51
2017-07-04T03:45:56.503Z,99.8
2017-07-04T03:46:24.534Z,99.7
2017-07-04T03:46:52.765Z,99.7
2017-07-04T03:47:20.921Z,99.7
2017-07-04T03:47:49.037Z,99.7
2017-07-04T03:48:17.243Z,99.89
2017-07-04T03:48:45.355Z,99.99
2017-07-04T03:49:13.468Z,99.99
2017-07-04T03:49:41.625Z,99.99
2017-07-04T03:50:09.865Z,99.99
2017-07-04T03:50:38.006Z,99.99
2017-07-04T03:51:06.152Z,99.99
2017-07-04T03:51:34.293Z,99.99
2017-07-04T03:52:02.325Z,99.99
2017-07-04T03:52:30.621Z,99.99
2017-07-04T03:52:58.703Z,99.99
2017-07-04T03:53:26.773Z,99.99
2017-07-04T03:53:54.690Z,99.99
2017-07-04T03:54:22.787Z,99.99
2017-07-04T03:54:50.912Z,99.99
2017-07-04T03:55:19.110Z,99.99
2017-07-04T03:55:47.356Z,99.99
2017-07-04T03:56:15.562Z,99.99
2017-07-04T03:56:43.766Z,99.99
2017-07-04T03:57:11.885Z,99.99
2017-07-04T03:57:40.139Z,99.99
2017-07-04T03:58:08.220Z,99.99
2017-07-04T03:58:36.466Z,99.99
2017-07-04T03:59:04.701Z,99.99
2017-07-04T03:59:32.915Z,99.99
2017-07-04T04:00:01.053Z,99.99
2017-07-04T04:00:29.081Z,99.99
2017-07-04T04:00:57.326Z,99.99
2017-07-04T04:01:25.536Z,99.99
2017-07-04T04:01:53.788Z,99.99
2017-07-04T04:02:21.818Z,99.99
2017-07-04T04:02:50.040Z,99.99
2017-07-04T04:03:18.117Z,99.99
2017-07-04T04:03:46.329Z,99.99
2017-07-04T04:04:14.575Z,99.99
2017-07-04T04:04:42.765Z,99.99
2017-07-04T04:05:10.764Z,99.99
2017-07-04T04:05:38.898Z,99.99
2017-07-04T04:06:07.211Z,99.99
2017-07-04T04:06:35.409Z,99.99
2017-07-04T04:07:03.630Z,99.99
2017-07-04T04:07:31.781Z,99.99
2017-07-04T04:07:59.982Z,99.99
2017-07-04T04:08:28.179Z,99.8
2017-07-04T04:08:56.203Z,99.99
2017-07-04T04:09:24.204Z,99.89
2017-07-04T04:09:52.206Z,99.41
2017-07-04T04:10:20.175Z,99.6
2017-07-04T04:10:48.217Z,99.99
2017-07-04T04:11:16.712Z,99.89
2017-07-04T04:11:44.940Z,99.99
2017-07-04T04:12:13.052Z,99.94
2017-07-04T04:12:41.269Z,99.84
2017-07-04T04:13:09.381Z,99.75
2017-07-04T04:13:37.293Z,99.99
2017-07-04T04:14:05.408Z,99.99
2017-07-04T04:14:33.640Z,99.99
2017-07-04T04:15:01.737Z,99.75
2017-07-04T04:15:29.848Z,99.99
2017-07-04T04:15:58.109Z,99.94
2017-07-04T04:16:26.095Z,99.94
2017-07-04T04:16:54.162Z,99.84
2017-07-04T04:17:22.294Z,99.99
2017-07-04T04:17:50.464Z,99.99
2017-07-04T04:18:18.687Z,99.99
2017-07-04T04:18:46.835Z,99.99
2017-07-04T04:19:15.051Z,99.99
2017-07-04T04:19:43.146Z,99.99
2017-07-04T04:20:11.263Z,99.65
2017-07-04T04:20:39.378Z,99.99
2017-07-04T04:21:07.499Z,99.99
2017-07-04T04:21:35.701Z,99.99
2017-07-04T04:22:03.941Z,99.94
2017-07-04T04:22:32.171Z,99.99
2017-07-04T04:23:00.255Z,99.99
2017-07-04T04:23:28.495Z,99.99
2017-07-04T04:23:56.746Z,99.99
2017-07-04T04:24:24.765Z,99.99
2017-07-04T04:24:52.960Z,99.99
2017-07-04T04:25:21.200Z,99.99
2017-07-04T04:25:49.480Z,99.99
2017-07-04T04:26:17.720Z,99.99
2017-07-04T04:26:45.878Z,99.99
2017-07-04T04:27:14.015Z,99.99
2017-07-04T04:27:42.073Z,99.99
2017-07-04T04:28:10.158Z,99.99
2017-07-04T04:28:38.371Z,99.99
2017-07-04T04:29:06.495Z,99.99
2017-07-04T04:29:34.647Z,99.99
2017-07-04T04:30:02.872Z,99.99
2017-07-04T04:30:30.962Z,99.84
2017-07-04T04:30:59.199Z,99.65
2017-07-04T04:31:27.508Z,99.37
2017-07-04T04:31:55.521Z,99.46
2017-07-04T04:32:23.716Z,98.79
2017-07-04T04:32:51.834Z,98.89
2017-07-04T04:33:19.888Z,98.99
2017-07-04T04:33:48.051Z,98.6
2017-07-04T04:34:16.150Z,98.99
2017-07-04T04:34:44.253Z,98.7
2017-07-04T04:35:12.258Z,99.46
2017-07-04T04:35:40.305Z,99.55
2017-07-04T04:36:08.604Z,99.55
2017-07-04T04:36:36.909Z,99.75
2017-07-04T04:37:04.914Z,99.37
2017-07-04T04:37:33.103Z,98.7
2017-07-04T04:38:01.484Z,98.7
2017-07-04T04:38:29.537Z,98.41
2017-07-04T04:38:57.800Z,98.6
2017-07-04T04:39:25.845Z,98.7
2017-07-04T04:39:53.969Z,98.79
2017-07-04T04:40:22.182Z,98.6
2017-07-04T04:40:50.414Z,98.79
2017-07-04T04:41:18.458Z,99.65
2017-07-04T04:41:46.694Z,99.46
2017-07-04T04:42:14.610Z,99.18
2017-07-04T04:42:42.742Z,98.79
2017-07-04T04:43:11.012Z,98.79
2017-07-04T04:43:39.127Z,98.7
2017-07-04T04:44:07.356Z,98.22
2017-07-04T04:44:35.569Z,98.41
2017-07-04T04:45:03.709Z,97.84
2017-07-04T04:45:31.894Z,97.94
2017-07-04T04:46:00.100Z,98.13
2017-07-04T04:46:28.073Z,98.13
2017-07-04T04:46:56.414Z,98.32
2017-07-04T04:47:24.560Z,98.22
2017-07-04T04:47:52.684Z,97.65
2017-07-04T04:48:20.980Z,97.94
2017-07-04T04:48:49.030Z,97.27
2017-07-04T04:49:17.229Z,97.08
2017-07-04T04:49:45.463Z,97.17
2017-07-04T04:50:13.615Z,97.17
2017-07-04T04:50:41.837Z,97.36
2017-07-04T04:51:09.971Z,97.36
2017-07-04T04:51:38.352Z,97.08
2017-07-04T04:52:06.595Z,97.27
2017-07-04T04:52:34.637Z,97.08
2017-07-04T04:53:02.684Z,97.08
2017-07-04T04:53:30.920Z,97.27
2017-07-04T04:53:59.138Z,97.46
2017-07-04T04:54:27.341Z,97.56
2017-07-04T04:54:55.560Z,97.36
2017-07-04T04:55:23.696Z,97.27
2017-07-04T04:55:51.818Z,97.56
2017-07-04T04:56:20.025Z,97.46
2017-07-04T04:56:48.334Z,97.56
2017-07-04T04:57:16.510Z,97.08
2017-07-04T04:57:44.659Z,97.27
2017-07-04T04:58:12.787Z,97.36
2017-07-04T04:58:41.010Z,97.27
2017-07-04T04:59:09.157Z,97.84
2017-07-04T04:59:37.177Z,98.13
2017-07-04T05:00:05.276Z,98.13
2017-07-04T05:00:33.530Z,98.03
2017-07-04T05:01:01.530Z,97.94
2017-07-04T05:01:29.686Z,97.94
2017-07-04T05:01:57.983Z,97.84
2017-07-04T05:02:26.317Z,97.84
2017-07-04T05:02:54.503Z,98.13
2017-07-04T05:03:22.642Z,98.22
2017-07-04T05:03:50.754Z,97.75
2017-07-04T05:04:18.989Z,98.03
2017-07-04T05:04:47.100Z,98.13
2017-07-04T05:05:15.237Z,97.94
2017-07-04T05:05:43.325Z,97.84
2017-07-04T05:06:11.469Z,98.03
2017-07-04T05:06:39.730Z,98.18
2017-07-04T05:07:07.818Z,97.7
2017-07-04T05:07:35.909Z,97.99
2017-07-04T05:08:04.056Z,97.99
2017-07-04T05:08:32.264Z,97.99
2017-07-04T05:09:00.354Z,98.36
2017-07-04T05:09:28.486Z,98.46
2017-07-04T05:09:56.820Z,98.18
2017-07-04T05:10:25.398Z,98.74
2017-07-04T05:10:53.597Z,98.36
2017-07-04T05:11:21.818Z,98.65
2017-07-04T05:11:50.008Z,98.94
2017-07-04T05:12:18.297Z,98.74
2017-07-04T05:12:46.561Z,99.22
2017-07-04T05:13:14.542Z,99.13
2017-07-04T05:13:42.773Z,99.41
2017-07-04T05:14:11.032Z,99.41
2017-07-04T05:14:39.114Z,99.03
2017-07-04T05:15:07.261Z,99.32
2017-07-04T05:15:35.307Z,99.22
2017-07-04T05:16:03.309Z,99.6
2017-07-04T05:16:31.521Z,99.6
2017-07-04T05:16:59.847Z,99.51
2017-07-04T05:17:28.121Z,99.6
2017-07-04T05:17:56.352Z,99.89
2017-07-04T05:18:24.477Z,99.79
2017-07-04T05:18:52.576Z,99.99
2017-07-04T05:19:20.893Z,99.98
2017-07-04T05:19:48.948Z,99.89
2017-07-04T05:20:16.951Z,99.89
2017-07-04T05:20:45.166Z,99.79
2017-07-04T05:21:13.245Z,99.99
2017-07-04T05:21:41.504Z,99.99
2017-07-04T05:22:09.765Z,99.99
2017-07-04T05:22:38.002Z,99.99
2017-07-04T05:23:06.057Z,99.99
2017-07-04T05:23:34.313Z,99.6
2017-07-04T05:24:02.540Z,99.99
2017-07-04T05:24:30.789Z,99.99
2017-07-04T05:24:59.053Z,99.79
2017-07-04T05:25:27.226Z,99.79
2017-07-04T05:25:55.328Z,99.79
2017-07-04T05:26:23.428Z,99.6
2017-07-04T05:26:51.414Z,99.51
2017-07-04T05:27:19.521Z,99.6
2017-07-04T05:27:47.624Z,99.79
2017-07-04T05:28:15.892Z,99.6
2017-07-04T05:28:43.844Z,99.89
2017-07-04T05:29:11.930Z,99.99
2017-07-04T05:29:40.177Z,99.99
2017-07-04T05:30:08.296Z,99.99
2017-07-04T05:30:36.490Z,99.99
2017-07-04T05:31:04.560Z,99.99
2017-07-04T05:31:32.848Z,99.6
2017-07-04T05:32:01.090Z,99.6
2017-07-04T05:32:29.551Z,99.79
2017-07-04T05:32:57.664Z,99.79
2017-07-04T05:33:25.805Z,99.22
2017-07-04T05:33:53.923Z,99.41
2017-07-04T05:34:22.051Z,99.41
2017-07-04T05:34:50.217Z,99.13
2017-07-04T05:35:18.424Z,98.55
2017-07-04T05:35:46.530Z,98.74
2017-07-04T05:36:14.513Z,98.74
2017-07-04T05:36:42.465Z,98.32
2017-07-04T05:37:10.701Z,98.22
2017-07-04T05:37:39.090Z,97.84
2017-07-04T05:38:07.261Z,98.13
2017-07-04T05:38:35.423Z,97.84
2017-07-04T05:39:03.660Z,97.75
2017-07-04T05:39:31.809Z,98.13
2017-07-04T05:39:59.947Z,96.98
2017-07-04T05:40:28.195Z,97.84
2017-07-04T05:40:56.440Z,98.03
2017-07-04T05:41:24.771Z,98.13
2017-07-04T05:41:52.894Z,97.94
2017-07-04T05:42:21.175Z,98.22
2017-07-04T05:42:49.013Z,97.27
2017-07-04T05:43:17.166Z,97.08
2017-07-04T05:43:45.471Z,97.46
2017-07-04T05:44:13.676Z,96.7
2017-07-04T05:44:41.992Z,96.32
2017-07-04T05:45:10.060Z,96.32
2017-07-04T05:45:38.366Z,95.94
2017-07-04T05:46:06.558Z,95.84
2017-07-04T05:46:34.822Z,96.03
2017-07-04T05:47:02.824Z,96.12
2017-07-04T05:47:30.764Z,95.84
2017-07-04T05:47:58.798Z,95.84
2017-07-04T05:48:27.064Z,96.22
2017-07-04T05:48:55.303Z,96.22
2017-07-04T05:49:23.335Z,95.65
2017-07-04T05:49:51.692Z,96.12
2017-07-04T05:50:19.956Z,95.46
2017-07-04T05:50:48.188Z,95.27
2017-07-04T05:51:16.213Z,95.51
2017-07-04T05:51:44.366Z,95.7
2017-07-04T05:52:12.597Z,95.89
2017-07-04T05:52:40.689Z,95.61
2017-07-04T05:53:08.980Z,95.56
2017-07-04T05:53:37.178Z,95.7
2017-07-04T05:54:05.345Z,95.32
2017-07-04T05:54:33.566Z,95.61
2017-07-04T05:55:01.849Z,95.51
2017-07-04T05:55:30.052Z,95.36
2017-07-04T05:55:58.258Z,95.61
2017-07-04T05:56:26.347Z,95.46
2017-07-04T05:56:54.587Z,95.22
2017-07-04T05:57:22.723Z,95.36
2017-07-04T05:57:50.934Z,95.41
2017-07-04T05:58:19.170Z,95.36
2017-07-04T05:58:47.320Z,95.7
2017-07-04T05:59:15.485Z,95.03
2017-07-04T05:59:43.475Z,94.93
2017-07-04T06:00:11.727Z,95.03
2017-07-04T06:00:39.738Z,95.03
2017-07-04T06:01:07.777Z,94.84
2017-07-04T06:01:35.898Z,94.93
2017-07-04T06:02:04.053Z,94.93
2017-07-04T06:02:32.271Z,95.03
2017-07-04T06:03:00.352Z,95.56
2017-07-04T06:03:28.534Z,95.41